Andover, Iowa
Current Conditions -  °F | °C
As of 2:15 PM on Saturday 25 Oct 2014 (Local Time) from KSFY Reporting Station
Clear Clear  
Wind Chill: 70°   Ceiling: Unl
Heat Index: 70°   Visibility: 10mi
Dew Point: 31°   Wind: 10mph
Humidity: 23%   Direction: 310°NW
Pressure: 29.99"   Gusts: NA
Location:  41.98°N, 90.25°W
Report Text: KSFY 251915Z AUTO 31009KT 10SM CLR 21/M01 A2999 RMK AO2 T02131008
Loading
Personal Weather Stations






























Interactive Weather Map
Tropical Storm Tracking
New forecast layout! Learn more

10-Day Weather Forecast

Advertisements
Track Severe Weather on mobile